sensor_id;sensor_type;location;lat;lon;timestamp;P1;durP1;ratioP1;P2;durP2;ratioP2
20271;SDS011;10295;49.812;9.866;2022-12-13T00:02:09;113.67;;;38.73;;
20271;SDS011;10295;49.812;9.866;2022-12-13T00:04:36;118.27;;;39.37;;
20271;SDS011;10295;49.812;9.866;2022-12-13T00:07:03;124.33;;;39.83;;
20271;SDS011;10295;49.812;9.866;2022-12-13T00:09:30;103.47;;;38.37;;
20271;SDS011;10295;49.812;9.866;2022-12-13T00:11:57;112.00;;;39.13;;
20271;SDS011;10295;49.812;9.866;2022-12-13T00:14:24;116.80;;;39.43;;
20271;SDS011;10295;49.812;9.866;2022-12-13T00:16:51;120.73;;;40.50;;
20271;SDS011;10295;49.812;9.866;2022-12-13T00:19:19;157.73;;;47.37;;
20271;SDS011;10295;49.812;9.866;2022-12-13T00:21:46;129.03;;;42.77;;
20271;SDS011;10295;49.812;9.866;2022-12-13T00:24:13;144.70;;;44.73;;
20271;SDS011;10295;49.812;9.866;2022-12-13T00:26:41;165.40;;;50.43;;
20271;SDS011;10295;49.812;9.866;2022-12-13T00:29:09;114.90;;;40.23;;
20271;SDS011;10295;49.812;9.866;2022-12-13T00:31:37;123.30;;;41.03;;
20271;SDS011;10295;49.812;9.866;2022-12-13T00:34:24;119.13;;;40.23;;
20271;SDS011;10295;49.812;9.866;2022-12-13T00:36:54;119.93;;;39.43;;
20271;SDS011;10295;49.812;9.866;2022-12-13T00:39:24;115.57;;;39.30;;
20271;SDS011;10295;49.812;9.866;2022-12-13T00:41:51;115.87;;;39.53;;
20271;SDS011;10295;49.812;9.866;2022-12-13T00:44:18;123.17;;;39.73;;
20271;SDS011;10295;49.812;9.866;2022-12-13T00:46:45;116.67;;;38.80;;
20271;SDS011;10295;49.812;9.866;2022-12-13T00:49:13;113.27;;;38.37;;
20271;SDS011;10295;49.812;9.866;2022-12-13T00:51:40;104.87;;;37.63;;
20271;SDS011;10295;49.812;9.866;2022-12-13T00:54:07;104.17;;;37.03;;
20271;SDS011;10295;49.812;9.866;2022-12-13T00:56:35;108.50;;;37.47;;
20271;SDS011;10295;49.812;9.866;2022-12-13T00:59:03;104.33;;;37.57;;
20271;SDS011;10295;49.812;9.866;2022-12-13T01:01:31;107.00;;;37.50;;
20271;SDS011;10295;49.812;9.866;2022-12-13T01:03:59;112.87;;;38.80;;
20271;SDS011;10295;49.812;9.866;2022-12-13T01:08:54;96.07;;;37.13;;
20271;SDS011;10295;49.812;9.866;2022-12-13T01:11:22;97.10;;;34.53;;
20271;SDS011;10295;49.812;9.866;2022-12-13T01:13:49;96.40;;;35.60;;
20271;SDS011;10295;49.812;9.866;2022-12-13T01:16:16;100.47;;;36.23;;
20271;SDS011;10295;49.812;9.866;2022-12-13T01:18:44;104.67;;;37.07;;
20271;SDS011;10295;49.812;9.866;2022-12-13T01:21:15;103.80;;;36.87;;
20271;SDS011;10295;49.812;9.866;2022-12-13T01:23:42;99.23;;;36.27;;
20271;SDS011;10295;49.812;9.866;2022-12-13T01:26:11;103.27;;;37.07;;
20271;SDS011;10295;49.812;9.866;2022-12-13T01:28:38;98.90;;;35.57;;
20271;SDS011;10295;49.812;9.866;2022-12-13T01:31:10;96.53;;;34.47;;
20271;SDS011;10295;49.812;9.866;2022-12-13T01:33:38;98.67;;;34.93;;
20271;SDS011;10295;49.812;9.866;2022-12-13T01:36:16;93.93;;;34.47;;
20271;SDS011;10295;49.812;9.866;2022-12-13T01:38:43;102.80;;;36.33;;
20271;SDS011;10295;49.812;9.866;2022-12-13T01:41:14;114.87;;;38.27;;
20271;SDS011;10295;49.812;9.866;2022-12-13T01:46:12;101.00;;;35.67;;
20271;SDS011;10295;49.812;9.866;2022-12-13T01:48:41;93.70;;;35.87;;
20271;SDS011;10295;49.812;9.866;2022-12-13T01:51:10;108.93;;;36.47;;
20271;SDS011;10295;49.812;9.866;2022-12-13T01:53:38;117.27;;;37.47;;
20271;SDS011;10295;49.812;9.866;2022-12-13T01:56:07;132.03;;;38.47;;
20271;SDS011;10295;49.812;9.866;2022-12-13T01:58:36;108.83;;;37.23;;
20271;SDS011;10295;49.812;9.866;2022-12-13T02:01:04;231.10;;;41.30;;
20271;SDS011;10295;49.812;9.866;2022-12-13T02:03:31;195.97;;;40.27;;
20271;SDS011;10295;49.812;9.866;2022-12-13T02:06:06;333.40;;;45.33;;
20271;SDS011;10295;49.812;9.866;2022-12-13T02:08:35;416.53;;;49.87;;
20271;SDS011;10295;49.812;9.866;2022-12-13T02:11:03;274.83;;;42.80;;
20271;SDS011;10295;49.812;9.866;2022-12-13T02:13:30;256.63;;;45.17;;
20271;SDS011;10295;49.812;9.866;2022-12-13T02:16:01;375.33;;;47.73;;
20271;SDS011;10295;49.812;9.866;2022-12-13T02:18:35;144.07;;;38.47;;
20271;SDS011;10295;49.812;9.866;2022-12-13T02:21:06;126.80;;;38.40;;
20271;SDS011;10295;49.812;9.866;2022-12-13T02:23:40;140.40;;;39.83;;
20271;SDS011;10295;49.812;9.866;2022-12-13T02:31:38;135.30;;;39.80;;
20271;SDS011;10295;49.812;9.866;2022-12-13T02:37:01;172.67;;;38.63;;
20271;SDS011;10295;49.812;9.866;2022-12-13T02:39:46;158.60;;;41.40;;
20271;SDS011;10295;49.812;9.866;2022-12-13T02:42:18;309.93;;;46.47;;
20271;SDS011;10295;49.812;9.866;2022-12-13T02:45:05;306.90;;;45.23;;
20271;SDS011;10295;49.812;9.866;2022-12-13T02:47:35;220.77;;;41.07;;
20271;SDS011;10295;49.812;9.866;2022-12-13T02:50:04;434.00;;;49.97;;
20271;SDS011;10295;49.812;9.866;2022-12-13T02:52:32;167.50;;;41.63;;
20271;SDS011;10295;49.812;9.866;2022-12-13T02:55:04;162.37;;;40.53;;
20271;SDS011;10295;49.812;9.866;2022-12-13T02:57:39;259.40;;;46.70;;
20271;SDS011;10295;49.812;9.866;2022-12-13T03:00:08;133.67;;;37.43;;
20271;SDS011;10295;49.812;9.866;2022-12-13T03:02:51;177.20;;;39.57;;
20271;SDS011;10295;49.812;9.866;2022-12-13T03:11:05;278.63;;;45.10;;
20271;SDS011;10295;49.812;9.866;2022-12-13T03:16:05;127.63;;;38.47;;
20271;SDS011;10295;49.812;9.866;2022-12-13T03:18:34;120.70;;;37.73;;
20271;SDS011;10295;49.812;9.866;2022-12-13T03:21:02;117.40;;;36.80;;
20271;SDS011;10295;49.812;9.866;2022-12-13T03:23:29;104.07;;;34.63;;
20271;SDS011;10295;49.812;9.866;2022-12-13T03:28:36;110.90;;;34.33;;
20271;SDS011;10295;49.812;9.866;2022-12-13T03:31:04;93.47;;;33.73;;
20271;SDS011;10295;49.812;9.866;2022-12-13T03:33:32;102.63;;;33.63;;
20271;SDS011;10295;49.812;9.866;2022-12-13T03:35:59;92.50;;;32.40;;
20271;SDS011;10295;49.812;9.866;2022-12-13T03:38:27;99.47;;;33.73;;
20271;SDS011;10295;49.812;9.866;2022-12-13T03:40:56;93.20;;;32.63;;
20271;SDS011;10295;49.812;9.866;2022-12-13T03:43:24;92.33;;;32.30;;
20271;SDS011;10295;49.812;9.866;2022-12-13T03:45:52;87.90;;;31.80;;
20271;SDS011;10295;49.812;9.866;2022-12-13T03:48:20;84.67;;;30.90;;
20271;SDS011;10295;49.812;9.866;2022-12-13T03:50:49;80.50;;;29.77;;
20271;SDS011;10295;49.812;9.866;2022-12-13T03:53:16;95.57;;;31.23;;
20271;SDS011;10295;49.812;9.866;2022-12-13T03:55:58;91.67;;;31.03;;
20271;SDS011;10295;49.812;9.866;2022-12-13T03:58:26;105.90;;;31.20;;
20271;SDS011;10295;49.812;9.866;2022-12-13T04:01:03;100.40;;;30.30;;
20271;SDS011;10295;49.812;9.866;2022-12-13T04:03:30;141.80;;;32.63;;
20271;SDS011;10295;49.812;9.866;2022-12-13T04:05:57;257.73;;;35.73;;
20271;SDS011;10295;49.812;9.866;2022-12-13T04:08:25;260.60;;;38.10;;
20271;SDS011;10295;49.812;9.866;2022-12-13T04:10:52;295.50;;;37.63;;
20271;SDS011;10295;49.812;9.866;2022-12-13T04:13:19;249.47;;;36.93;;
20271;SDS011;10295;49.812;9.866;2022-12-13T04:15:59;248.50;;;37.23;;
20271;SDS011;10295;49.812;9.866;2022-12-13T04:18:26;195.23;;;36.47;;
20271;SDS011;10295;49.812;9.866;2022-12-13T04:20:53;170.00;;;35.23;;
20271;SDS011;10295;49.812;9.866;2022-12-13T04:23:22;120.47;;;33.10;;
20271;SDS011;10295;49.812;9.866;2022-12-13T04:25:49;152.17;;;33.10;;
20271;SDS011;10295;49.812;9.866;2022-12-13T04:28:17;115.43;;;32.07;;
20271;SDS011;10295;49.812;9.866;2022-12-13T04:30:48;147.70;;;30.67;;
20271;SDS011;10295;49.812;9.866;2022-12-13T04:33:19;151.63;;;32.23;;
20271;SDS011;10295;49.812;9.866;2022-12-13T04:35:46;87.40;;;30.37;;
20271;SDS011;10295;49.812;9.866;2022-12-13T04:38:14;102.00;;;31.93;;
20271;SDS011;10295;49.812;9.866;2022-12-13T04:40:41;129.93;;;34.27;;
20271;SDS011;10295;49.812;9.866;2022-12-13T04:43:08;140.00;;;35.50;;
20271;SDS011;10295;49.812;9.866;2022-12-13T04:45:35;92.00;;;31.83;;
20271;SDS011;10295;49.812;9.866;2022-12-13T04:48:03;121.40;;;33.80;;
20271;SDS011;10295;49.812;9.866;2022-12-13T04:50:30;167.27;;;34.57;;
20271;SDS011;10295;49.812;9.866;2022-12-13T04:52:57;143.43;;;34.23;;
20271;SDS011;10295;49.812;9.866;2022-12-13T04:55:24;97.03;;;33.63;;
20271;SDS011;10295;49.812;9.866;2022-12-13T04:57:51;125.23;;;33.47;;
20271;SDS011;10295;49.812;9.866;2022-12-13T05:00:18;187.57;;;35.47;;
20271;SDS011;10295;49.812;9.866;2022-12-13T05:02:47;310.50;;;39.17;;
20271;SDS011;10295;49.812;9.866;2022-12-13T05:05:14;231.90;;;35.80;;
20271;SDS011;10295;49.812;9.866;2022-12-13T05:07:42;299.13;;;36.97;;
20271;SDS011;10295;49.812;9.866;2022-12-13T05:10:10;390.43;;;40.07;;
20271;SDS011;10295;49.812;9.866;2022-12-13T05:12:37;155.63;;;35.00;;
20271;SDS011;10295;49.812;9.866;2022-12-13T05:15:04;374.63;;;42.83;;
20271;SDS011;10295;49.812;9.866;2022-12-13T05:17:31;158.60;;;35.00;;
20271;SDS011;10295;49.812;9.866;2022-12-13T05:19:59;258.20;;;40.60;;
20271;SDS011;10295;49.812;9.866;2022-12-13T05:22:26;150.30;;;35.03;;
20271;SDS011;10295;49.812;9.866;2022-12-13T05:24:53;130.60;;;32.80;;
20271;SDS011;10295;49.812;9.866;2022-12-13T05:27:20;139.30;;;34.43;;
20271;SDS011;10295;49.812;9.866;2022-12-13T05:29:52;117.17;;;35.67;;
20271;SDS011;10295;49.812;9.866;2022-12-13T05:32:33;163.87;;;35.17;;
20271;SDS011;10295;49.812;9.866;2022-12-13T05:35:09;101.47;;;33.57;;
20271;SDS011;10295;49.812;9.866;2022-12-13T05:37:36;161.87;;;34.20;;
20271;SDS011;10295;49.812;9.866;2022-12-13T05:40:03;141.97;;;36.57;;
20271;SDS011;10295;49.812;9.866;2022-12-13T05:42:31;97.67;;;33.13;;
20271;SDS011;10295;49.812;9.866;2022-12-13T05:44:58;100.33;;;33.77;;
20271;SDS011;10295;49.812;9.866;2022-12-13T05:47:25;162.73;;;36.70;;
20271;SDS011;10295;49.812;9.866;2022-12-13T05:49:52;212.97;;;39.10;;
20271;SDS011;10295;49.812;9.866;2022-12-13T05:52:20;129.73;;;35.10;;
20271;SDS011;10295;49.812;9.866;2022-12-13T05:54:56;103.57;;;37.70;;
20271;SDS011;10295;49.812;9.866;2022-12-13T05:57:38;109.53;;;37.80;;
20271;SDS011;10295;49.812;9.866;2022-12-13T06:00:06;93.47;;;34.07;;
20271;SDS011;10295;49.812;9.866;2022-12-13T06:02:53;122.30;;;34.90;;
20271;SDS011;10295;49.812;9.866;2022-12-13T06:05:21;98.23;;;34.43;;
20271;SDS011;10295;49.812;9.866;2022-12-13T06:07:48;97.13;;;34.13;;
20271;SDS011;10295;49.812;9.866;2022-12-13T06:10:22;119.40;;;34.17;;
20271;SDS011;10295;49.812;9.866;2022-12-13T06:12:49;101.30;;;35.43;;
20271;SDS011;10295;49.812;9.866;2022-12-13T06:15:16;103.40;;;33.93;;
20271;SDS011;10295;49.812;9.866;2022-12-13T06:17:48;102.13;;;33.30;;
20271;SDS011;10295;49.812;9.866;2022-12-13T06:20:15;113.13;;;34.47;;
20271;SDS011;10295;49.812;9.866;2022-12-13T06:22:49;174.70;;;37.40;;
20271;SDS011;10295;49.812;9.866;2022-12-13T06:25:16;120.97;;;34.53;;
20271;SDS011;10295;49.812;9.866;2022-12-13T06:27:57;155.20;;;37.77;;
20271;SDS011;10295;49.812;9.866;2022-12-13T06:30:26;103.53;;;33.80;;
20271;SDS011;10295;49.812;9.866;2022-12-13T06:32:54;97.37;;;32.90;;
20271;SDS011;10295;49.812;9.866;2022-12-13T06:35:21;93.63;;;33.67;;
20271;SDS011;10295;49.812;9.866;2022-12-13T06:41:25;89.20;;;33.13;;
20271;SDS011;10295;49.812;9.866;2022-12-13T06:43:57;108.67;;;34.07;;
20271;SDS011;10295;49.812;9.866;2022-12-13T06:46:24;111.13;;;34.60;;
20271;SDS011;10295;49.812;9.866;2022-12-13T06:48:52;90.70;;;32.60;;
20271;SDS011;10295;49.812;9.866;2022-12-13T06:51:19;105.37;;;31.50;;
20271;SDS011;10295;49.812;9.866;2022-12-13T06:53:48;87.23;;;30.93;;
20271;SDS011;10295;49.812;9.866;2022-12-13T06:56:15;84.33;;;29.87;;
20271;SDS011;10295;49.812;9.866;2022-12-13T06:58:42;82.13;;;29.40;;
20271;SDS011;10295;49.812;9.866;2022-12-13T07:01:11;81.70;;;28.63;;
20271;SDS011;10295;49.812;9.866;2022-12-13T07:03:40;90.23;;;31.57;;
20271;SDS011;10295;49.812;9.866;2022-12-13T07:06:11;101.20;;;31.07;;
20271;SDS011;10295;49.812;9.866;2022-12-13T07:08:39;84.83;;;31.10;;
20271;SDS011;10295;49.812;9.866;2022-12-13T07:11:07;98.17;;;31.20;;
20271;SDS011;10295;49.812;9.866;2022-12-13T07:13:39;87.60;;;31.17;;
20271;SDS011;10295;49.812;9.866;2022-12-13T07:16:06;98.40;;;35.63;;
20271;SDS011;10295;49.812;9.866;2022-12-13T07:18:34;88.67;;;30.60;;
20271;SDS011;10295;49.812;9.866;2022-12-13T07:21:08;80.47;;;29.63;;
20271;SDS011;10295;49.812;9.866;2022-12-13T07:23:47;99.27;;;31.80;;
20271;SDS011;10295;49.812;9.866;2022-12-13T07:26:20;96.00;;;31.13;;
20271;SDS011;10295;49.812;9.866;2022-12-13T07:28:47;92.23;;;32.07;;
20271;SDS011;10295;49.812;9.866;2022-12-13T07:31:20;97.10;;;33.77;;
20271;SDS011;10295;49.812;9.866;2022-12-13T07:33:47;105.50;;;34.83;;
20271;SDS011;10295;49.812;9.866;2022-12-13T07:36:16;110.97;;;34.40;;
20271;SDS011;10295;49.812;9.866;2022-12-13T07:42:12;83.60;;;31.07;;
20271;SDS011;10295;49.812;9.866;2022-12-13T07:44:40;89.03;;;31.13;;
20271;SDS011;10295;49.812;9.866;2022-12-13T07:47:07;91.53;;;34.57;;
20271;SDS011;10295;49.812;9.866;2022-12-13T07:49:34;86.03;;;32.57;;
20271;SDS011;10295;49.812;9.866;2022-12-13T07:52:01;86.03;;;31.60;;
20271;SDS011;10295;49.812;9.866;2022-12-13T07:54:28;87.37;;;30.07;;
20271;SDS011;10295;49.812;9.866;2022-12-13T07:56:55;76.07;;;28.10;;
20271;SDS011;10295;49.812;9.866;2022-12-13T07:59:29;80.83;;;28.60;;
20271;SDS011;10295;49.812;9.866;2022-12-13T08:01:56;77.53;;;29.13;;
20271;SDS011;10295;49.812;9.866;2022-12-13T08:04:27;77.83;;;28.90;;
20271;SDS011;10295;49.812;9.866;2022-12-13T08:07:05;75.77;;;28.90;;
20271;SDS011;10295;49.812;9.866;2022-12-13T08:09:34;71.80;;;26.00;;
20271;SDS011;10295;49.812;9.866;2022-12-13T08:12:01;64.53;;;27.43;;
20271;SDS011;10295;49.812;9.866;2022-12-13T08:14:28;60.37;;;25.30;;
20271;SDS011;10295;49.812;9.866;2022-12-13T08:16:55;60.63;;;25.27;;
20271;SDS011;10295;49.812;9.866;2022-12-13T08:19:22;57.50;;;24.83;;
20271;SDS011;10295;49.812;9.866;2022-12-13T08:21:50;58.60;;;24.70;;
20271;SDS011;10295;49.812;9.866;2022-12-13T08:24:22;58.40;;;24.57;;
20271;SDS011;10295;49.812;9.866;2022-12-13T08:26:50;62.10;;;24.97;;
20271;SDS011;10295;49.812;9.866;2022-12-13T08:29:17;56.70;;;22.97;;
20271;SDS011;10295;49.812;9.866;2022-12-13T08:32:00;63.03;;;24.43;;
20271;SDS011;10295;49.812;9.866;2022-12-13T08:34:27;60.60;;;24.90;;
20271;SDS011;10295;49.812;9.866;2022-12-13T08:36:55;59.27;;;24.60;;
20271;SDS011;10295;49.812;9.866;2022-12-13T08:39:28;57.73;;;23.77;;
20271;SDS011;10295;49.812;9.866;2022-12-13T08:42:00;55.47;;;23.80;;
20271;SDS011;10295;49.812;9.866;2022-12-13T08:44:47;60.17;;;24.97;;
20271;SDS011;10295;49.812;9.866;2022-12-13T08:47:15;57.73;;;24.60;;
20271;SDS011;10295;49.812;9.866;2022-12-13T08:49:53;55.17;;;24.00;;
20271;SDS011;10295;49.812;9.866;2022-12-13T08:52:28;50.67;;;22.23;;
20271;SDS011;10295;49.812;9.866;2022-12-13T08:54:55;54.80;;;23.87;;
20271;SDS011;10295;49.812;9.866;2022-12-13T08:57:23;55.50;;;23.20;;
20271;SDS011;10295;49.812;9.866;2022-12-13T08:59:50;58.90;;;24.57;;
20271;SDS011;10295;49.812;9.866;2022-12-13T09:02:19;54.97;;;23.47;;
20271;SDS011;10295;49.812;9.866;2022-12-13T09:04:46;54.20;;;23.20;;
20271;SDS011;10295;49.812;9.866;2022-12-13T09:07:13;51.63;;;23.40;;
20271;SDS011;10295;49.812;9.866;2022-12-13T09:09:40;59.83;;;25.27;;
20271;SDS011;10295;49.812;9.866;2022-12-13T09:12:07;54.93;;;24.47;;
20271;SDS011;10295;49.812;9.866;2022-12-13T09:14:54;54.87;;;24.73;;
20271;SDS011;10295;49.812;9.866;2022-12-13T09:17:28;52.67;;;23.43;;
20271;SDS011;10295;49.812;9.866;2022-12-13T09:20:03;57.03;;;23.97;;
20271;SDS011;10295;49.812;9.866;2022-12-13T09:22:50;49.37;;;21.73;;
20271;SDS011;10295;49.812;9.866;2022-12-13T09:25:26;47.30;;;22.40;;
20271;SDS011;10295;49.812;9.866;2022-12-13T09:28:02;50.27;;;21.40;;
20271;SDS011;10295;49.812;9.866;2022-12-13T09:30:30;48.47;;;22.27;;
20271;SDS011;10295;49.812;9.866;2022-12-13T09:32:57;76.17;;;23.77;;
20271;SDS011;10295;49.812;9.866;2022-12-13T09:35:45;51.87;;;22.77;;
20271;SDS011;10295;49.812;9.866;2022-12-13T09:38:12;44.77;;;21.13;;
20271;SDS011;10295;49.812;9.866;2022-12-13T09:40:39;49.03;;;21.20;;
20271;SDS011;10295;49.812;9.866;2022-12-13T09:43:06;42.90;;;20.50;;
20271;SDS011;10295;49.812;9.866;2022-12-13T09:45:39;40.10;;;19.47;;
20271;SDS011;10295;49.812;9.866;2022-12-13T09:48:09;38.30;;;18.97;;
20271;SDS011;10295;49.812;9.866;2022-12-13T09:50:38;37.93;;;17.93;;
20271;SDS011;10295;49.812;9.866;2022-12-13T09:53:19;40.87;;;19.37;;
20271;SDS011;10295;49.812;9.866;2022-12-13T09:55:47;44.20;;;20.17;;
20271;SDS011;10295;49.812;9.866;2022-12-13T09:58:28;42.80;;;19.20;;
20271;SDS011;10295;49.812;9.866;2022-12-13T10:00:56;45.13;;;20.20;;
20271;SDS011;10295;49.812;9.866;2022-12-13T10:03:24;42.40;;;19.60;;
20271;SDS011;10295;49.812;9.866;2022-12-13T10:08:31;41.97;;;19.10;;
20271;SDS011;10295;49.812;9.866;2022-12-13T10:11:00;41.57;;;19.13;;
20271;SDS011;10295;49.812;9.866;2022-12-13T10:13:47;36.10;;;18.73;;
20271;SDS011;10295;49.812;9.866;2022-12-13T10:18:49;41.77;;;19.53;;
20271;SDS011;10295;49.812;9.866;2022-12-13T10:23:51;40.07;;;19.67;;
20271;SDS011;10295;49.812;9.866;2022-12-13T10:26:38;39.47;;;18.53;;
20271;SDS011;10295;49.812;9.866;2022-12-13T10:29:05;37.97;;;18.17;;
20271;SDS011;10295;49.812;9.866;2022-12-13T10:31:39;36.07;;;19.60;;
20271;SDS011;10295;49.812;9.866;2022-12-13T10:34:20;39.17;;;20.17;;
20271;SDS011;10295;49.812;9.866;2022-12-13T10:36:47;37.30;;;19.30;;
20271;SDS011;10295;49.812;9.866;2022-12-13T10:39:26;40.40;;;19.73;;
20271;SDS011;10295;49.812;9.866;2022-12-13T10:42:03;40.07;;;19.60;;
20271;SDS011;10295;49.812;9.866;2022-12-13T10:44:31;35.47;;;18.20;;
20271;SDS011;10295;49.812;9.866;2022-12-13T10:47:03;41.03;;;19.30;;
20271;SDS011;10295;49.812;9.866;2022-12-13T10:49:52;39.23;;;19.00;;
20271;SDS011;10295;49.812;9.866;2022-12-13T10:54:59;38.30;;;19.93;;
20271;SDS011;10295;49.812;9.866;2022-12-13T10:57:27;35.43;;;18.63;;
20271;SDS011;10295;49.812;9.866;2022-12-13T10:59:55;36.90;;;18.13;;
20271;SDS011;10295;49.812;9.866;2022-12-13T11:07:48;36.83;;;18.70;;
20271;SDS011;10295;49.812;9.866;2022-12-13T11:12:58;42.67;;;18.77;;
20271;SDS011;10295;49.812;9.866;2022-12-13T11:15:26;41.07;;;18.10;;
20271;SDS011;10295;49.812;9.866;2022-12-13T11:17:58;35.03;;;17.90;;
20271;SDS011;10295;49.812;9.866;2022-12-13T11:20:28;36.17;;;18.00;;
20271;SDS011;10295;49.812;9.866;2022-12-13T11:23:00;37.47;;;17.07;;
20271;SDS011;10295;49.812;9.866;2022-12-13T11:25:40;35.23;;;16.93;;
20271;SDS011;10295;49.812;9.866;2022-12-13T11:33:29;38.70;;;17.70;;
20271;SDS011;10295;49.812;9.866;2022-12-13T11:36:05;37.27;;;17.63;;
20271;SDS011;10295;49.812;9.866;2022-12-13T11:41:25;39.43;;;20.10;;
20271;SDS011;10295;49.812;9.866;2022-12-13T11:43:59;39.37;;;19.07;;
20271;SDS011;10295;49.812;9.866;2022-12-13T11:46:41;39.80;;;19.27;;
20271;SDS011;10295;49.812;9.866;2022-12-13T11:49:15;40.43;;;20.13;;
20271;SDS011;10295;49.812;9.866;2022-12-13T11:51:45;44.60;;;19.83;;
20271;SDS011;10295;49.812;9.866;2022-12-13T11:56:54;43.40;;;21.17;;
20271;SDS011;10295;49.812;9.866;2022-12-13T12:07:13;38.03;;;17.87;;
20271;SDS011;10295;49.812;9.866;2022-12-13T12:10:44;35.27;;;16.67;;
20271;SDS011;10295;49.812;9.866;2022-12-13T12:12:47;34.17;;;14.97;;
20271;SDS011;10295;49.812;9.866;2022-12-13T12:15:18;34.67;;;16.37;;
20271;SDS011;10295;49.812;9.866;2022-12-13T12:17:53;25.47;;;13.67;;
20271;SDS011;10295;49.812;9.866;2022-12-13T12:20:22;27.83;;;14.10;;
20271;SDS011;10295;49.812;9.866;2022-12-13T12:22:57;24.03;;;12.43;;
20271;SDS011;10295;49.812;9.866;2022-12-13T12:33:18;29.33;;;13.27;;
20271;SDS011;10295;49.812;9.866;2022-12-13T12:35:50;25.23;;;11.03;;
20271;SDS011;10295;49.812;9.866;2022-12-13T12:43:41;27.87;;;11.83;;
20271;SDS011;10295;49.812;9.866;2022-12-13T12:57:10;24.40;;;10.20;;
20271;SDS011;10295;49.812;9.866;2022-12-13T13:02:36;26.17;;;11.57;;
20271;SDS011;10295;49.812;9.866;2022-12-13T13:05:14;23.73;;;10.53;;
20271;SDS011;10295;49.812;9.866;2022-12-13T13:07:46;21.43;;;9.90;;
20271;SDS011;10295;49.812;9.866;2022-12-13T13:10:16;26.77;;;11.83;;
20271;SDS011;10295;49.812;9.866;2022-12-13T13:12:52;24.97;;;11.80;;
20271;SDS011;10295;49.812;9.866;2022-12-13T13:18:07;26.87;;;12.43;;
20271;SDS011;10295;49.812;9.866;2022-12-13T13:23:38;30.60;;;12.10;;
20271;SDS011;10295;49.812;9.866;2022-12-13T13:26:26;24.40;;;12.27;;
20271;SDS011;10295;49.812;9.866;2022-12-13T13:32:00;27.40;;;13.40;;
20271;SDS011;10295;49.812;9.866;2022-12-13T13:34:29;23.47;;;12.00;;
20271;SDS011;10295;49.812;9.866;2022-12-13T13:36:57;30.53;;;13.20;;
20271;SDS011;10295;49.812;9.866;2022-12-13T13:42:07;25.73;;;13.23;;
20271;SDS011;10295;49.812;9.866;2022-12-13T13:47:13;24.47;;;11.07;;
20271;SDS011;10295;49.812;9.866;2022-12-13T13:49:53;28.03;;;11.43;;
20271;SDS011;10295;49.812;9.866;2022-12-13T13:55:27;28.03;;;11.97;;
20271;SDS011;10295;49.812;9.866;2022-12-13T14:08:45;24.30;;;11.40;;
20271;SDS011;10295;49.812;9.866;2022-12-13T14:19:27;26.37;;;12.53;;
20271;SDS011;10295;49.812;9.866;2022-12-13T14:22:14;25.53;;;11.27;;
20271;SDS011;10295;49.812;9.866;2022-12-13T14:27:27;30.63;;;12.37;;
20271;SDS011;10295;49.812;9.866;2022-12-13T14:29:58;26.30;;;11.93;;
20271;SDS011;10295;49.812;9.866;2022-12-13T14:32:26;28.07;;;12.37;;
20271;SDS011;10295;49.812;9.866;2022-12-13T14:34:55;26.60;;;11.67;;
20271;SDS011;10295;49.812;9.866;2022-12-13T14:37:26;25.77;;;12.10;;
20271;SDS011;10295;49.812;9.866;2022-12-13T14:39:56;27.13;;;12.73;;
20271;SDS011;10295;49.812;9.866;2022-12-13T14:42:24;32.97;;;14.10;;
20271;SDS011;10295;49.812;9.866;2022-12-13T14:44:52;26.70;;;12.77;;
20271;SDS011;10295;49.812;9.866;2022-12-13T14:47:19;32.70;;;14.27;;
20271;SDS011;10295;49.812;9.866;2022-12-13T14:49:52;34.60;;;14.90;;
20271;SDS011;10295;49.812;9.866;2022-12-13T14:52:23;29.50;;;13.73;;
20271;SDS011;10295;49.812;9.866;2022-12-13T14:57:24;29.37;;;13.70;;
20271;SDS011;10295;49.812;9.866;2022-12-13T14:59:53;28.63;;;13.47;;
20271;SDS011;10295;49.812;9.866;2022-12-13T15:02:22;30.03;;;14.20;;
20271;SDS011;10295;49.812;9.866;2022-12-13T15:05:00;33.83;;;14.87;;
20271;SDS011;10295;49.812;9.866;2022-12-13T15:07:29;32.87;;;14.03;;
20271;SDS011;10295;49.812;9.866;2022-12-13T15:09:59;35.73;;;15.03;;
20271;SDS011;10295;49.812;9.866;2022-12-13T15:12:26;39.93;;;15.13;;
20271;SDS011;10295;49.812;9.866;2022-12-13T15:14:56;34.90;;;15.43;;
20271;SDS011;10295;49.812;9.866;2022-12-13T15:19:57;34.90;;;15.83;;
20271;SDS011;10295;49.812;9.866;2022-12-13T15:22:25;34.87;;;15.60;;
20271;SDS011;10295;49.812;9.866;2022-12-13T15:24:55;34.03;;;15.90;;
20271;SDS011;10295;49.812;9.866;2022-12-13T15:27:23;36.10;;;16.00;;
20271;SDS011;10295;49.812;9.866;2022-12-13T15:29:50;32.37;;;15.03;;
20271;SDS011;10295;49.812;9.866;2022-12-13T15:32:19;36.63;;;15.80;;
20271;SDS011;10295;49.812;9.866;2022-12-13T15:34:49;37.70;;;17.00;;
20271;SDS011;10295;49.812;9.866;2022-12-13T15:37:19;40.83;;;18.77;;
20271;SDS011;10295;49.812;9.866;2022-12-13T15:39:55;41.93;;;17.33;;
20271;SDS011;10295;49.812;9.866;2022-12-13T15:42:28;41.73;;;18.27;;
20271;SDS011;10295;49.812;9.866;2022-12-13T15:44:56;42.80;;;17.17;;
20271;SDS011;10295;49.812;9.866;2022-12-13T15:47:24;37.13;;;14.97;;
20271;SDS011;10295;49.812;9.866;2022-12-13T15:50:04;34.07;;;14.70;;
20271;SDS011;10295;49.812;9.866;2022-12-13T15:52:39;38.33;;;15.50;;
20271;SDS011;10295;49.812;9.866;2022-12-13T15:57:34;37.43;;;17.13;;
20271;SDS011;10295;49.812;9.866;2022-12-13T16:00:06;37.03;;;16.57;;
20271;SDS011;10295;49.812;9.866;2022-12-13T16:02:34;41.13;;;17.83;;
20271;SDS011;10295;49.812;9.866;2022-12-13T16:05:05;38.47;;;18.13;;
20271;SDS011;10295;49.812;9.866;2022-12-13T16:07:33;39.37;;;17.67;;
20271;SDS011;10295;49.812;9.866;2022-12-13T16:10:03;36.90;;;17.30;;
20271;SDS011;10295;49.812;9.866;2022-12-13T16:12:35;36.10;;;17.20;;
20271;SDS011;10295;49.812;9.866;2022-12-13T16:15:14;38.93;;;17.77;;
20271;SDS011;10295;49.812;9.866;2022-12-13T16:18:11;43.63;;;18.93;;
20271;SDS011;10295;49.812;9.866;2022-12-13T16:20:38;43.97;;;18.97;;
20271;SDS011;10295;49.812;9.866;2022-12-13T16:23:06;42.33;;;19.10;;
20271;SDS011;10295;49.812;9.866;2022-12-13T16:25:34;41.50;;;18.37;;
20271;SDS011;10295;49.812;9.866;2022-12-13T16:28:01;42.73;;;19.70;;
20271;SDS011;10295;49.812;9.866;2022-12-13T16:30:51;41.57;;;18.40;;
20271;SDS011;10295;49.812;9.866;2022-12-13T16:33:15;41.00;;;18.57;;
20271;SDS011;10295;49.812;9.866;2022-12-13T16:35:53;38.13;;;17.90;;
20271;SDS011;10295;49.812;9.866;2022-12-13T16:38:20;39.90;;;18.37;;
20271;SDS011;10295;49.812;9.866;2022-12-13T16:40:52;47.03;;;21.50;;
20271;SDS011;10295;49.812;9.866;2022-12-13T16:43:21;49.97;;;22.70;;
20271;SDS011;10295;49.812;9.866;2022-12-13T16:45:58;48.60;;;22.13;;
20271;SDS011;10295;49.812;9.866;2022-12-13T16:48:47;48.27;;;21.80;;
20271;SDS011;10295;49.812;9.866;2022-12-13T16:51:14;58.53;;;27.53;;
20271;SDS011;10295;49.812;9.866;2022-12-13T16:53:41;55.43;;;28.80;;
20271;SDS011;10295;49.812;9.866;2022-12-13T16:56:09;66.20;;;31.47;;
20271;SDS011;10295;49.812;9.866;2022-12-13T16:58:39;71.30;;;32.80;;